Time;durP1;ratioP1;P1;durP2;ratioP2;P2;SDS_P1;SDS_P2;PMS_P1;PMS_P2;Temp;Humidity;BMP_temperature;BMP_pressure;BME280_temperature;BME280_humidity;BME280_pressure;Samples;Min_cycle;Max_cycle;Signal;HPM_P1;HPM_P2
2022/06/20 00:01:31;;;;;;;20.75;8.15;;;;;;;25.20;54.15;98308.66;5155247;28;20152;-75
2022/06/20 00:04:21;;;;;;;30.58;8.85;;;;;;;25.34;53.86;98300.91;5142826;28;20051;-75
2022/06/20 00:07:13;;;;;;;18.02;8.02;;;;;;;25.24;53.71;98301.63;5141974;28;20054;-74
2022/06/20 00:10:04;;;;;;;21.38;8.55;;;;;;;25.16;53.94;98301.25;5142975;28;20047;-74
2022/06/20 00:12:55;;;;;;;22.38;8.05;;;;;;;25.30;53.62;98316.91;5141930;28;20118;-75
2022/06/20 00:15:46;;;;;;;25.13;8.82;;;;;;;25.23;53.37;98296.44;5139959;28;20078;-75
2022/06/20 00:18:37;;;;;;;20.40;8.07;;;;;;;25.04;54.47;98304.09;5151995;28;20105;-74
2022/06/20 00:21:29;;;;;;;28.45;8.65;;;;;;;25.13;53.77;98289.03;5151002;28;20532;-74
2022/06/20 00:24:19;;;;;;;23.70;8.23;;;;;;;25.18;53.00;98283.66;5143107;28;20085;-75
2022/06/20 00:27:10;;;;;;;23.70;8.55;;;;;;;25.20;53.04;98286.94;5145426;28;20054;-75
2022/06/20 00:30:02;;;;;;;18.23;7.78;;;;;;;25.20;53.88;98276.09;5142874;28;20050;-75
2022/06/20 00:32:52;;;;;;;27.80;8.82;;;;;;;25.10;54.16;98265.13;5141889;28;20078;-75
2022/06/20 00:35:42;;;;;;;23.27;8.43;;;;;;;25.18;53.63;98272.81;5140629;28;20512;-73
2022/06/20 00:38:35;;;;;;;23.23;8.43;;;;;;;25.04;54.23;98283.22;5149389;28;20058;-73
2022/06/20 00:41:30;;;;;;;32.28;8.98;;;;;;;24.74;54.83;98293.72;5145479;28;20065;-73
2022/06/20 00:44:31;;;;;;;26.40;9.10;;;;;;;24.99;54.37;98293.19;5155109;28;20160;-73
2022/06/20 00:47:29;;;;;;;24.15;9.27;;;;;;;24.41;55.65;98290.06;5149166;28;20420;-73
2022/06/20 00:50:24;;;;;;;18.13;8.15;;;;;;;24.73;54.55;98286.66;5146687;28;20729;-73
2022/06/20 00:53:42;;;;;;;24.85;8.50;;;;;;;24.88;54.84;98300.41;5145863;28;20050;-73
2022/06/20 00:56:43;;;;;;;32.03;9.38;;;;;;;24.59;55.15;98308.72;5144207;28;20218;-73
2022/06/20 00:59:38;;;;;;;21.67;8.35;;;;;;;24.96;54.38;98309.97;5142581;28;20137;-73
2022/06/20 01:02:33;;;;;;;31.15;9.60;;;;;;;24.78;54.60;98311.94;5154384;28;20054;-73
2022/06/20 01:05:35;;;;;;;19.10;7.93;;;;;;;25.03;54.10;98335.00;5147640;28;20433;-73
2022/06/20 01:08:33;;;;;;;17.73;8.18;;;;;;;25.12;53.85;98327.28;5150328;28;20043;-73
2022/06/20 01:11:27;;;;;;;21.25;8.48;;;;;;;25.22;53.93;98343.66;5153689;28;20069;-73
2022/06/20 01:14:34;;;;;;;23.38;9.13;;;;;;;25.20;54.32;98330.34;5150338;28;20515;-73
2022/06/20 01:17:32;;;;;;;22.23;8.63;;;;;;;25.22;55.39;98303.78;5147706;28;20065;-73
2022/06/20 01:20:31;;;;;;;23.08;9.65;;;;;;;25.16;57.80;98307.50;5149354;28;20114;-73
2022/06/20 01:23:46;;;;;;;32.67;8.93;;;;;;;25.17;56.48;98297.50;5146578;28;20056;-73
2022/06/20 01:26:37;;;;;;;21.55;9.13;;;;;;;25.16;59.43;98306.69;5152910;28;20050;-73
2022/06/20 01:29:27;;;;;;;27.90;9.68;;;;;;;24.75;58.98;98300.78;5149344;28;20066;-73
2022/06/20 01:32:18;;;;;;;30.65;10.15;;;;;;;24.87;59.43;98308.75;5144771;28;20773;-73
2022/06/20 01:35:11;;;;;;;20.80;9.07;;;;;;;24.61;59.80;98319.31;5143863;28;20575;-73
2022/06/20 01:38:04;;;;;;;19.75;9.48;;;;;;;24.57;61.04;98307.34;5149500;28;20053;-72
2022/06/20 01:44:05;;;;;;;28.67;9.77;;;;;;;24.33;61.93;98302.09;5154203;28;20491;-72
2022/06/20 01:46:55;;;;;;;27.17;10.48;;;;;;;24.43;61.53;98297.91;5145711;28;20046;-72
2022/06/20 01:49:49;;;;;;;21.73;9.93;;;;;;;24.14;62.09;98311.59;5144031;28;20522;-72
2022/06/20 01:52:43;;;;;;;23.27;10.02;;;;;;;23.90;62.15;98291.97;5144314;28;20082;-72
2022/06/20 01:55:35;;;;;;;26.48;10.48;;;;;;;24.06;61.96;98301.16;5144560;28;20059;-72
2022/06/20 01:58:31;;;;;;;22.42;10.65;;;;;;;23.89;62.57;98296.56;5149700;28;20047;-72
2022/06/20 02:01:21;;;;;;;25.10;10.23;;;;;;;23.59;63.42;98298.75;5146287;28;20433;-73
2022/06/20 02:04:17;;;;;;;22.13;10.77;;;;;;;23.61;62.42;98310.19;5143837;28;20046;-73
2022/06/20 02:07:09;;;;;;;24.65;10.45;;;;;;;23.53;62.66;98299.75;5144331;28;20717;-73
2022/06/20 02:10:06;;;;;;;23.55;10.70;;;;;;;23.49;62.86;98298.59;5149314;28;20530;-73
2022/06/20 02:12:58;;;;;;;27.70;10.10;;;;;;;23.68;62.78;98306.28;5147227;28;20514;-72
2022/06/20 02:15:51;;;;;;;22.95;10.82;;;;;;;23.76;63.91;98306.91;5140766;28;20058;-72
2022/06/20 02:18:44;;;;;;;30.35;11.57;;;;;;;23.68;63.04;98308.97;5148842;28;20195;-73
2022/06/20 02:21:36;;;;;;;25.05;10.88;;;;;;;23.73;62.34;98307.41;5136723;28;20051;-72
2022/06/20 02:24:31;;;;;;;36.33;11.77;;;;;;;23.74;62.22;98304.47;5142827;28;20046;-73
2022/06/20 02:27:38;;;;;;;25.08;12.35;;;;;;;23.68;63.06;98295.44;5155841;28;20062;-73
2022/06/20 02:30:29;;;;;;;24.33;12.50;;;;;;;23.63;63.07;98289.09;5152109;28;20058;-73
2022/06/20 02:33:25;;;;;;;27.13;13.05;;;;;;;23.52;63.28;98288.09;5143173;28;20054;-73
2022/06/20 02:36:15;;;;;;;29.15;11.93;;;;;;;23.32;63.87;98266.94;5143968;28;20050;-73
2022/06/20 02:39:06;;;;;;;27.00;12.65;;;;;;;23.32;64.21;98282.34;5150702;28;20054;-73
2022/06/20 02:42:04;;;;;;;32.25;11.85;;;;;;;23.56;63.82;98277.59;5145711;28;20416;-73
2022/06/20 02:44:55;;;;;;;20.48;11.50;;;;;;;23.18;64.86;98279.13;5139890;28;20511;-73
2022/06/20 02:47:48;;;;;;;34.75;11.63;;;;;;;23.32;64.10;98272.34;5138795;28;20081;-72
2022/06/20 02:50:45;;;;;;;24.20;11.23;;;;;;;23.42;63.51;98258.97;5137799;28;20053;-73
2022/06/20 02:53:46;;;;;;;26.08;11.88;;;;;;;23.47;63.60;98274.47;5140424;28;20050;-73
2022/06/20 02:56:43;;;;;;;29.65;13.27;;;;;;;23.54;63.77;98280.56;5146810;28;20050;-73
2022/06/20 02:59:41;;;;;;;31.80;14.13;;;;;;;23.63;63.56;98289.09;5144403;28;20070;-73
2022/06/20 03:02:35;;;;;;;32.33;13.48;;;;;;;23.77;63.18;98314.78;5142840;28;20050;-73
2022/06/20 03:05:25;;;;;;;29.42;13.48;;;;;;;23.66;64.25;98321.88;5142528;28;20089;-73
2022/06/20 03:08:15;;;;;;;34.97;14.88;;;;;;;23.54;64.64;98312.19;5144797;28;20055;-72
2022/06/20 03:11:06;;;;;;;29.77;14.32;;;;;;;23.64;64.22;98324.03;5141595;28;20082;-73
2022/06/20 03:13:59;;;;;;;32.55;15.10;;;;;;;23.84;63.90;98360.63;5138387;28;20046;-71
2022/06/20 03:16:49;;;;;;;30.10;14.85;;;;;;;23.57;64.89;98388.28;5138814;28;20065;-71
2022/06/20 03:19:44;;;;;;;25.23;13.20;;;;;;;23.40;65.25;98372.03;5137769;28;20537;-71
2022/06/20 03:22:44;;;;;;;28.83;13.82;;;;;;;23.64;63.90;98398.97;5142767;28;20418;-71
2022/06/20 03:25:37;;;;;;;26.38;12.55;;;;;;;23.56;64.11;98397.50;5142585;28;20412;-72
2022/06/20 03:28:29;;;;;;;28.30;13.02;;;;;;;23.71;63.98;98437.59;5148872;28;20397;-72
2022/06/20 03:31:26;;;;;;;33.72;14.45;;;;;;;23.40;64.54;98439.66;5142963;28;20055;-73
2022/06/20 03:34:16;;;;;;;25.55;12.75;;;;;;;23.28;64.15;98438.03;5144774;28;20054;-71
2022/06/20 03:37:07;;;;;;;25.75;12.35;;;;;;;23.35;63.47;98428.75;5141636;28;20509;-73
2022/06/20 03:39:57;;;;;;;30.00;13.65;;;;;;;23.45;63.53;98447.88;5140800;28;20039;-74
2022/06/20 03:42:48;;;;;;;24.75;11.10;;;;;;;23.18;63.65;98441.38;5137609;28;20090;-71
2022/06/20 03:45:45;;;;;;;22.85;10.45;;;;;;;23.19;62.52;98461.97;5142534;28;20171;-72
2022/06/20 03:48:43;;;;;;;24.13;10.15;;;;;;;23.28;62.99;98476.75;5140738;28;20054;-72
2022/06/20 03:52:04;;;;;;;18.02;9.63;;;;;;;23.39;62.79;98483.19;5141115;28;20106;-71
2022/06/20 03:55:12;;;;;;;23.50;11.02;;;;;;;22.88;63.48;98488.31;5141647;28;20445;-72
2022/06/20 03:58:15;;;;;;;31.27;10.75;;;;;;;22.85;64.44;98496.88;5139436;28;20061;-72
2022/06/20 04:01:16;;;;;;;28.23;10.82;;;;;;;23.14;64.05;98464.53;5140381;28;20178;-73
2022/06/20 04:04:20;;;;;;;22.65;9.88;;;;;;;22.92;64.89;98467.03;5142625;28;20105;-73
2022/06/20 04:07:17;;;;;;;31.25;10.82;;;;;;;22.95;64.00;98453.88;5148812;28;20431;-72
2022/06/20 04:13:50;;;;;;;30.52;10.05;;;;;;;22.93;62.70;98466.00;5142961;28;20109;-73
2022/06/20 04:16:52;;;;;;;25.02;9.40;;;;;;;22.45;63.70;98500.25;5140640;28;20127;-72
2022/06/20 04:19:42;;;;;;;23.83;9.80;;;;;;;22.78;63.50;98493.47;5150392;28;20185;-73
2022/06/20 04:22:37;;;;;;;27.42;10.15;;;;;;;22.95;62.33;98501.72;5145317;28;20066;-72
2022/06/20 04:25:32;;;;;;;24.63;10.90;;;;;;;22.84;64.14;98500.63;5148096;28;20478;-72
2022/06/20 04:28:25;;;;;;;26.23;10.38;;;;;;;22.85;63.72;98486.06;5151648;28;20043;-72
2022/06/20 04:31:28;;;;;;;30.10;10.27;;;;;;;22.90;62.42;98472.66;5145913;28;20043;-73
2022/06/20 04:34:31;;;;;;;26.17;10.18;;;;;;;22.92;61.67;98453.50;5146683;28;20061;-72
2022/06/20 04:37:27;;;;;;;29.55;10.43;;;;;;;22.97;63.07;98470.66;5146213;28;20051;-72
2022/06/20 04:40:25;;;;;;;29.10;11.00;;;;;;;23.24;62.20;98470.16;5146461;28;20053;-70
2022/06/20 04:43:35;;;;;;;21.85;9.95;;;;;;;23.25;62.24;98509.69;5147829;28;20416;-70
2022/06/20 04:46:39;;;;;;;17.27;8.40;;;;;;;22.61;62.70;98535.75;5151121;28;20055;-70
2022/06/20 04:49:29;;;;;;;;;;;;;;;22.88;61.33;98560.44;5160539;28;20461;-70
2022/06/20 04:52:24;;;;;;;28.45;8.25;;;;;;;22.77;61.87;98542.34;5145981;28;19949;-70
2022/06/20 04:55:19;;;;;;;17.65;7.03;;;;;;;23.06;59.88;98516.28;5146032;28;20112;-71
2022/06/20 04:58:17;;;;;;;25.92;7.78;;;;;;;22.93;60.90;98518.16;5144165;28;20054;-70
2022/06/20 05:01:08;;;;;;;19.40;6.90;;;;;;;22.98;60.83;98509.38;5143775;28;20057;-69
2022/06/20 05:04:07;;;;;;;23.23;7.63;;;;;;;23.03;60.13;98516.75;5144070;28;20053;-69
2022/06/20 05:07:02;;;;;;;20.77;6.82;;;;;;;;;;5144599;28;20059;-68
2022/06/20 05:10:08;;;;;;;24.98;6.68;;;;;;;22.82;60.77;98510.88;5140634;28;20054;-69
2022/06/20 05:13:16;;;;;;;23.33;6.88;;;;;;;22.33;61.53;98518.31;5154079;28;20097;-69
2022/06/20 05:16:14;;;;;;;17.33;7.03;;;;;;;22.15;61.94;98513.81;5145364;28;20050;-69
2022/06/20 05:19:15;;;;;;;18.67;6.30;;;;;;;22.22;61.61;98519.13;5153923;28;20121;-68
2022/06/20 05:22:12;;;;;;;21.00;6.20;;;;;;;22.15;61.79;98519.22;5145501;28;20051;-68
2022/06/20 05:25:06;;;;;;;17.92;6.05;;;;;;;22.38;59.94;98526.53;5144856;28;20055;-69
2022/06/20 05:28:02;;;;;;;12.02;5.60;;;;;;;22.28;59.62;98521.72;5156741;28;20618;-70
2022/06/20 05:30:52;;;;;;;16.02;5.57;;;;;;;22.26;59.84;98496.81;5140810;28;20047;-71
2022/06/20 05:33:45;;;;;;;17.67;5.80;;;;;;;22.38;59.43;98515.72;5146516;28;20660;-75
2022/06/20 05:36:55;;;;;;;14.50;5.65;;;;;;;22.62;58.62;98513.09;5143071;28;20540;-69
2022/06/20 05:39:52;;;;;;;20.55;5.85;;;;;;;22.19;59.52;98536.59;5140961;28;20076;-70
2022/06/20 05:42:42;;;;;;;23.30;6.10;;;;;;;22.50;58.86;98540.06;5143089;28;20506;-71
2022/06/20 05:45:32;;;;;;;17.13;5.53;;;;;;;22.53;58.10;98526.09;5150437;28;20197;-70
2022/06/20 05:48:37;;;;;;;8.88;4.28;;;;;;;22.76;58.51;98549.63;5144273;28;20070;-70
2022/06/20 05:51:27;;;;;;;;;;;;;;;23.18;57.56;98549.56;5159122;28;20137;-68
2022/06/20 05:54:23;;;;;;;15.07;5.07;;;;;;;23.33;56.08;98560.72;5143741;28;19930;-70
2022/06/20 05:57:21;;;;;;;14.70;5.63;;;;;;;23.33;56.76;98582.34;5149084;28;20097;-70
2022/06/20 06:00:12;;;;;;;20.98;4.75;;;;;;;23.14;57.32;98587.06;5144368;28;20043;-69
2022/06/20 06:03:05;;;;;;;15.95;4.88;;;;;;;23.33;56.31;98582.34;5149326;28;20055;-69
2022/06/20 06:06:01;;;;;;;27.03;5.90;;;;;;;23.25;56.55;98584.59;5139979;28;20061;-71
2022/06/20 06:08:53;;;;;;;17.65;5.63;;;;;;;23.03;57.26;98590.59;5143480;28;20153;-71
2022/06/20 06:12:01;;;;;;;13.93;5.15;;;;;;;23.41;56.88;98579.31;5139387;28;20128;-71
2022/06/20 06:14:57;;;;;;;17.90;5.05;;;;;;;23.44;56.35;98589.66;5138177;28;20413;-70
2022/06/20 06:17:54;;;;;;;13.13;5.38;;;;;;;23.54;55.57;98575.53;5137047;28;20160;-70
2022/06/20 06:20:47;;;;;;;15.18;5.47;;;;;;;23.69;55.32;98556.09;5140313;28;20426;-70
2022/06/20 06:23:39;;;;;;;13.90;5.55;;;;;;;23.79;55.84;98561.72;5136611;28;20051;-68
2022/06/20 06:26:29;;;;;;;14.80;5.15;;;;;;;23.17;57.17;98567.66;5144377;28;20047;-70
2022/06/20 06:29:26;;;;;;;13.93;4.97;;;;;;;23.24;57.46;98564.81;5144332;28;20413;-70
2022/06/20 06:32:26;;;;;;;19.25;5.25;;;;;;;23.58;56.78;98556.94;5146145;28;20535;-70
2022/06/20 06:35:33;;;;;;;17.08;5.03;;;;;;;23.83;55.45;98560.16;5148400;28;20047;-70
2022/06/20 06:38:36;;;;;;;15.27;4.93;;;;;;;23.58;55.57;98551.50;5148762;28;20089;-71
2022/06/20 06:41:30;;;;;;;14.05;5.20;;;;;;;23.80;55.97;98557.13;5143105;28;20417;-72
2022/06/20 06:44:32;;;;;;;19.10;5.70;;;;;;;23.70;56.35;98570.44;5136056;28;20088;-71
2022/06/20 06:47:31;;;;;;;17.08;5.80;;;;;;;23.79;56.37;98575.25;5137497;28;20524;-70
2022/06/20 06:50:39;;;;;;;17.83;5.82;;;;;;;24.26;54.71;98576.97;5145541;28;20054;-71
2022/06/20 06:53:42;;;;;;;18.15;5.47;;;;;;;25.16;52.67;98564.41;5145412;28;20085;-71
2022/06/20 06:56:38;;;;;;;18.65;5.88;;;;;;;26.01;50.08;98571.25;5141546;28;20054;-71
2022/06/20 06:59:40;;;;;;;21.88;5.30;;;;;;;26.86;49.54;98568.84;5148767;28;20141;-71
2022/06/20 07:02:39;;;;;;;18.48;5.20;;;;;;;27.33;47.38;98574.38;5142760;28;20280;-71
2022/06/20 07:05:40;;;;;;;20.45;5.93;;;;;;;28.07;44.90;98561.63;5142518;28;20143;-71
2022/06/20 07:08:38;;;;;;;16.55;5.35;;;;;;;28.30;46.29;98579.41;5134968;28;20079;-71
2022/06/20 07:11:31;;;;;;;19.83;5.50;;;;;;;28.76;44.42;98568.59;5141567;28;20533;-73
2022/06/20 07:14:23;;;;;;;15.40;5.13;;;;;;;28.23;44.72;98573.41;5147835;28;20080;-73
2022/06/20 07:17:24;;;;;;;15.75;5.28;;;;;;;27.01;47.71;98581.72;5142909;28;20149;-73
2022/06/20 07:20:20;;;;;;;16.55;5.30;;;;;;;28.06;46.83;98604.44;5141319;28;20038;-72
2022/06/20 07:23:13;;;;;;;14.52;4.90;;;;;;;29.08;44.27;98590.16;5143112;28;20090;-72
2022/06/20 07:26:04;;;;;;;17.23;5.60;;;;;;;28.08;47.93;98580.47;5139890;28;20133;-73
2022/06/20 07:29:19;;;;;;;16.23;5.22;;;;;;;29.76;43.68;98608.06;5145873;28;20077;-72
2022/06/20 07:32:32;;;;;;;;;;;;;;;29.92;41.78;98605.00;5141040;28;20054;-73
2022/06/20 07:35:33;;;;;;;19.27;5.50;;;;;;;29.20;43.54;98589.88;5148621;28;19933;-72
2022/06/20 07:38:35;;;;;;;14.93;5.18;;;;;;;28.97;42.80;98602.13;5143027;28;20445;-73
2022/06/20 07:41:38;;;;;;;20.45;5.60;;;;;;;29.27;44.70;98602.16;5145119;28;20049;-74
2022/06/20 07:44:44;;;;;;;13.70;5.30;;;;;;;30.35;42.03;98585.41;5146011;28;20055;-73
2022/06/20 07:47:42;;;;;;;15.48;5.10;;;;;;;30.91;41.00;98606.09;5140991;28;20058;-72
2022/06/20 07:50:42;;;;;;;17.58;5.35;;;;;;;30.11;43.29;98605.19;5145849;28;20201;-73
2022/06/20 07:54:09;;;;;;;15.45;5.30;;;;;;;28.95;43.45;98607.88;5143242;28;20170;-73
2022/06/20 07:57:05;;;;;;;14.23;5.13;;;;;;;29.81;44.66;98611.63;5148612;28;20054;-74
2022/06/20 08:00:03;;;;;;;15.95;5.57;;;;;;;30.60;41.89;98611.78;5143124;28;20053;-72
2022/06/20 08:03:04;;;;;;;18.48;5.32;;;;;;;29.33;43.25;98621.25;5149485;28;20061;-72
2022/06/20 08:06:02;;;;;;;16.02;5.68;;;;;;;29.26;42.58;98621.53;5144686;28;20051;-73
2022/06/20 08:09:09;;;;;;;19.23;5.25;;;;;;;29.11;43.88;98621.56;5144175;28;20359;-72
2022/06/20 08:12:03;;;;;;;17.48;5.07;;;;;;;29.04;44.70;98619.13;5147125;28;20181;-72
2022/06/20 08:14:56;;;;;;;;;;;;;;;30.02;42.50;98633.41;5147565;28;20066;-72
2022/06/20 08:17:47;;;;;;;16.95;5.10;;;;;;;30.30;43.10;98621.81;5150866;28;19929;-72
2022/06/20 08:20:42;;;;;;;16.00;5.15;;;;;;;30.71;42.47;98628.94;5149146;28;20568;-71
2022/06/20 08:23:40;;;;;;;16.08;5.63;;;;;;;30.42;41.82;98611.34;5142282;28;20625;-72
2022/06/20 08:26:59;;;;;;;16.00;5.57;;;;;;;31.30;40.67;98617.81;5151413;28;20432;-71
2022/06/20 08:29:57;;;;;;;21.05;5.03;;;;;;;31.21;40.02;98602.28;5142705;28;20055;-71
2022/06/20 08:33:18;;;;;;;20.08;5.22;;;;;;;31.63;39.34;98609.00;5141125;28;20065;-72
2022/06/20 08:36:22;;;;;;;12.70;4.88;;;;;;;31.43;38.85;98608.13;5167151;28;20097;-73
2022/06/20 08:39:26;;;;;;;21.83;5.18;;;;;;;31.19;38.88;98610.75;5145895;28;20108;-74
2022/06/20 08:42:35;;;;;;;14.30;5.63;;;;;;;31.28;38.09;98603.56;5145239;28;20054;-74
2022/06/20 08:45:59;;;;;;;15.57;4.80;;;;;;;31.83;37.61;98620.53;5146593;28;20589;-73
2022/06/20 08:49:43;;;;;;;13.52;5.05;;;;;;;32.06;38.30;98612.63;5143373;28;20051;-74
2022/06/20 08:52:52;;;;;;;19.45;5.38;;;;;;;32.17;36.14;98614.13;5139699;28;20094;-73
2022/06/20 08:55:42;;;;;;;14.70;5.32;;;;;;;32.93;37.15;98611.38;5142249;28;20081;-74
2022/06/20 08:59:08;;;;;;;13.20;5.20;;;;;;;32.96;35.35;98610.81;5144893;28;20125;-74
2022/06/20 09:02:22;;;;;;;15.27;6.15;;;;;;;31.59;36.56;98609.59;5150132;28;20050;-73
2022/06/20 09:05:38;;;;;;;11.85;5.32;;;;;;;31.46;37.74;98626.72;5146362;28;20127;-74
2022/06/20 09:09:06;;;;;;;13.70;5.25;;;;;;;32.28;37.15;98625.75;5147117;28;20058;-74
2022/06/20 09:12:24;;;;;;;15.63;5.70;;;;;;;31.57;40.27;98627.44;5143990;28;20113;-72
2022/06/20 09:15:26;;;;;;;15.38;5.40;;;;;;;32.26;35.67;98631.56;5144113;28;20089;-72
2022/06/20 09:19:02;;;;;;;17.15;5.57;;;;;;;31.17;40.15;98640.38;5147972;28;20094;-71
2022/06/20 09:22:04;;;;;;;14.73;5.57;;;;;;;32.07;38.07;98627.97;5141974;28;20075;-71
2022/06/20 09:25:20;;;;;;;18.27;5.53;;;;;;;32.18;35.98;98634.94;5144196;28;20121;-71
2022/06/20 09:28:45;;;;;;;15.75;5.13;;;;;;;32.51;38.37;98649.59;5148465;28;20497;-74
2022/06/20 09:31:35;;;;;;;;;;;;;;;31.87;36.77;98650.13;5135486;28;20456;-71
2022/06/20 09:34:44;;;;;;;17.23;5.00;;;;;;;30.36;38.65;98656.22;5144629;28;19993;-71
2022/06/20 09:37:46;;;;;;;16.20;5.32;;;;;;;30.86;38.74;98658.97;5138452;28;20110;-71
2022/06/20 09:40:39;;;;;;;23.25;5.32;;;;;;;30.22;39.63;98666.16;5143926;28;20095;-71
2022/06/20 09:43:37;;;;;;;14.50;5.72;;;;;;;30.58;39.60;98649.56;5147992;28;20054;-72
2022/06/20 09:46:41;;;;;;;18.30;5.53;;;;;;;30.47;39.54;98639.78;5149110;28;20058;-73
2022/06/20 09:49:52;;;;;;;17.42;5.38;;;;;;;29.96;39.90;98655.28;5143135;28;20463;-71
2022/06/20 09:53:10;;;;;;;14.40;5.18;;;;;;;29.55;41.44;98651.00;5137662;28;20065;-72
2022/06/20 09:56:12;;;;;;;18.10;5.88;;;;;;;30.70;39.96;98651.94;5140968;28;20069;-72
2022/06/20 09:59:21;;;;;;;17.85;5.50;;;;;;;29.83;40.81;98649.59;5144728;28;20189;-72
2022/06/20 10:02:29;;;;;;;21.70;5.25;;;;;;;29.27;41.20;98651.31;5147985;28;20065;-72
2022/06/20 10:05:43;;;;;;;18.80;5.75;;;;;;;29.76;41.72;98649.88;5142244;28;20069;-72
2022/06/20 10:09:10;;;;;;;14.07;5.70;;;;;;;31.10;40.56;98648.94;5139099;28;20564;-71
2022/06/20 10:12:21;;;;;;;19.52;5.25;;;;;;;30.72;39.63;98652.47;5143019;28;20301;-73
2022/06/20 10:15:22;;;;;;;13.00;4.97;;;;;;;29.22;41.30;98645.03;5142670;28;20442;-72
2022/06/20 10:18:26;;;;;;;15.07;6.05;;;;;;;30.74;40.08;98639.31;5147635;28;20162;-71
2022/06/20 10:21:31;;;;;;;15.88;5.30;;;;;;;31.09;38.03;98635.50;5146204;28;20073;-71
2022/06/20 10:24:21;;;;;;;14.43;5.43;;;;;;;31.31;38.33;98635.84;5144978;28;20050;-71
2022/06/20 10:27:30;;;;;;;14.00;5.25;;;;;;;30.26;39.46;98639.88;5150281;28;20070;-71
2022/06/20 10:30:38;;;;;;;13.82;5.45;;;;;;;29.60;42.25;98624.50;5142752;28;20058;-71
2022/06/20 10:33:59;;;;;;;16.15;5.72;;;;;;;30.86;40.66;98643.38;5141548;28;20051;-71
2022/06/20 10:36:59;;;;;;;20.58;5.70;;;;;;;29.47;40.22;98645.00;5144220;28;20062;-71
2022/06/20 10:40:01;;;;;;;16.60;5.32;;;;;;;30.30;41.03;98651.06;5145184;28;20058;-71
2022/06/20 10:43:08;;;;;;;14.73;5.10;;;;;;;30.43;40.56;98662.22;5148138;28;20050;-72
2022/06/20 10:46:22;;;;;;;13.43;4.80;;;;;;;30.72;40.25;98647.81;5139788;28;20042;-72
2022/06/20 10:49:29;;;;;;;13.90;5.43;;;;;;;28.98;42.95;98667.38;5141541;28;20622;-72
2022/06/20 10:52:47;;;;;;;21.52;5.57;;;;;;;28.90;42.66;98651.53;5141848;28;20050;-71
2022/06/20 10:55:52;;;;;;;15.40;5.28;;;;;;;29.70;41.16;98659.19;5141491;28;20055;-72
2022/06/20 10:59:15;;;;;;;14.75;5.65;;;;;;;28.90;43.48;98658.91;5140157;28;20514;-72
2022/06/20 11:02:32;;;;;;;15.48;5.68;;;;;;;28.53;42.91;98660.75;5142211;28;20394;-72
2022/06/20 11:05:52;;;;;;;15.98;6.05;;;;;;;28.68;42.97;98668.16;5143390;28;20177;-71
2022/06/20 11:09:09;;;;;;;16.50;5.43;;;;;;;29.13;41.70;98676.69;5144186;28;20050;-71
2022/06/20 11:12:29;;;;;;;18.27;5.97;;;;;;;29.14;41.76;98662.78;5141275;28;20057;-72
2022/06/20 11:15:47;;;;;;;15.55;5.38;;;;;;;29.60;42.92;98687.34;5143061;28;20145;-72
2022/06/20 11:18:57;;;;;;;18.38;4.85;;;;;;;29.71;41.76;98693.63;5140134;28;20051;-72
2022/06/20 11:22:34;;;;;;;16.85;4.68;;;;;;;28.54;41.62;98697.88;5141272;28;20489;-72
2022/06/20 11:25:32;;;;;;;10.35;4.28;;;;;;;27.97;44.15;98706.84;5116529;28;20457;-72
2022/06/20 11:28:36;;;;;;;12.30;4.65;;;;;;;27.49;45.24;98716.88;5143062;28;20060;-71
2022/06/20 11:31:37;;;;;;;14.00;4.60;;;;;;;28.19;44.09;98716.78;5142346;28;20580;-71
2022/06/20 11:34:51;;;;;;;11.65;5.07;;;;;;;27.89;45.83;98701.91;5146003;28;20143;-72
2022/06/20 11:38:11;;;;;;;9.82;5.10;;;;;;;28.48;44.96;98726.22;5133476;28;20113;-74
2022/06/20 11:41:12;;;;;;;14.43;5.50;;;;;;;28.11;44.58;98731.72;5138786;28;20086;-71
2022/06/20 11:44:09;;;;;;;15.85;5.90;;;;;;;27.78;46.21;98735.59;5138611;28;20433;-73
2022/06/20 11:47:05;;;;;;;16.75;5.55;;;;;;;27.47;45.91;98743.53;5139695;28;20094;-71
2022/06/20 11:50:24;;;;;;;15.10;5.85;;;;;;;27.58;46.50;98748.00;5140777;28;20069;-72
2022/06/20 11:53:30;;;;;;;16.42;4.93;;;;;;;28.23;45.63;98756.88;5137186;28;20081;-71
2022/06/20 11:56:32;;;;;;;16.57;5.53;;;;;;;27.72;45.58;98758.44;5144710;28;20149;-72
2022/06/20 11:59:48;;;;;;;18.80;4.70;;;;;;;27.39;44.25;98761.19;5123780;28;20047;-72
2022/06/20 12:02:59;;;;;;;13.00;4.82;;;;;;;25.52;47.87;98777.47;5138838;28;20481;-68
2022/06/20 12:05:54;;;;;;;14.63;4.25;;;;;;;26.10;47.68;98784.38;5139104;28;20074;-74
2022/06/20 12:08:57;;;;;;;17.35;4.47;;;;;;;25.48;48.55;98776.31;5136564;28;20054;-71
2022/06/20 12:12:09;;;;;;;11.32;4.05;;;;;;;25.68;48.45;98778.56;5136246;28;20185;-72
2022/06/20 12:15:05;;;;;;;14.63;4.63;;;;;;;25.99;47.71;98780.72;5139006;28;20521;-71
2022/06/20 12:18:33;;;;;;;21.05;4.60;;;;;;;26.27;47.77;98784.34;5144490;28;20054;-71
2022/06/20 12:24:33;;;;;;;14.48;4.93;;;;;;;25.19;49.42;98792.63;5140604;28;20445;-70
2022/06/20 12:27:28;;;;;;;17.13;5.47;;;;;;;25.67;49.07;98779.63;5142569;28;20058;-69
2022/06/20 12:30:19;;;;;;;12.15;4.60;;;;;;;25.29;50.61;98783.88;5141499;28;20165;-70
2022/06/20 12:33:10;;;;;;;17.23;4.50;;;;;;;25.57;49.57;98784.91;5137709;28;20667;-72
2022/06/20 12:36:15;;;;;;;15.50;4.97;;;;;;;26.48;46.11;98799.88;5145119;28;20145;-72
2022/06/20 12:39:18;;;;;;;21.92;5.30;;;;;;;26.03;48.24;98789.19;5145687;28;20088;-71
2022/06/20 12:42:41;;;;;;;24.20;5.20;;;;;;;25.81;48.09;98813.56;5144031;28;20065;-70
2022/06/20 12:45:37;;;;;;;24.33;5.60;;;;;;;25.44;49.69;98818.59;5149269;28;20054;-70
2022/06/20 12:48:32;;;;;;;14.80;5.03;;;;;;;25.42;49.65;98820.72;5147079;28;20055;-70
2022/06/20 12:52:13;;;;;;;16.70;4.80;;;;;;;25.59;48.91;98816.13;5149737;28;20057;-70
2022/06/20 12:55:27;;;;;;;16.73;4.70;;;;;;;25.78;48.71;98820.25;5141325;28;20213;-72
2022/06/20 12:58:44;;;;;;;17.90;4.53;;;;;;;26.53;48.95;98830.94;5141961;28;20206;-70
2022/06/20 13:01:44;;;;;;;17.73;4.90;;;;;;;26.52;48.66;98832.81;5145006;28;20054;-69
2022/06/20 13:05:12;;;;;;;13.23;4.18;;;;;;;25.84;49.32;98833.97;5138740;28;20453;-70
2022/06/20 13:08:32;;;;;;;9.15;3.88;;;;;;;25.76;50.08;98852.28;5142651;28;20054;-69
2022/06/20 13:11:39;;;;;;;13.73;3.60;;;;;;;25.87;49.49;98842.44;5145811;28;20066;-70
2022/06/20 13:15:04;;;;;;;9.50;3.28;;;;;;;24.98;52.13;98855.69;5148423;28;20058;-69
2022/06/20 13:18:31;;;;;;;17.85;4.07;;;;;;;24.54;52.79;98847.19;5145575;28;20109;-70
2022/06/20 13:21:52;;;;;;;10.48;3.40;;;;;;;25.74;50.52;98840.84;5149530;28;20127;-70
2022/06/20 13:24:53;;;;;;;10.65;3.58;;;;;;;25.87;49.49;98838.91;5143289;28;20576;-70
2022/06/20 13:28:04;;;;;;;11.00;3.35;;;;;;;25.64;51.47;98851.53;5150526;28;20447;-70
2022/06/20 13:31:00;;;;;;;7.85;3.97;;;;;;;25.59;49.95;98840.56;5140906;28;20057;-70
2022/06/20 13:33:53;;;;;;;9.23;3.70;;;;;;;25.16;51.80;98847.38;5131301;28;20172;-70
2022/06/20 13:36:43;;;;;;;10.00;3.70;;;;;;;24.96;51.41;98827.97;5141848;28;20493;-71
2022/06/20 13:39:45;;;;;;;8.98;3.60;;;;;;;25.42;50.81;98834.31;5147100;28;20057;-70
2022/06/20 13:42:44;;;;;;;7.68;3.72;;;;;;;25.82;50.57;98846.97;5142973;28;20050;-71
2022/06/20 13:45:57;;;;;;;12.23;3.60;;;;;;;25.05;50.86;98807.56;5143406;28;20612;-70
2022/06/20 13:48:59;;;;;;;7.38;3.30;;;;;;;25.43;50.68;98849.50;5145395;28;20073;-70
2022/06/20 13:52:23;;;;;;;5.63;3.20;;;;;;;24.82;51.75;98833.69;5145628;28;20070;-70
2022/06/20 13:55:14;;;;;;;9.40;3.45;;;;;;;24.96;52.14;98855.09;5145853;28;20750;-70
2022/06/20 13:58:14;;;;;;;6.82;3.00;;;;;;;25.45;51.12;98844.66;5142843;28;20117;-71
2022/06/20 14:01:10;;;;;;;8.68;3.10;;;;;;;25.17;51.68;98840.91;5145921;28;20051;-70
2022/06/20 14:04:08;;;;;;;9.15;3.70;;;;;;;25.23;51.14;98826.38;5146603;28;20105;-70
2022/06/20 14:07:05;;;;;;;5.18;2.92;;;;;;;25.37;51.20;98831.50;5146035;28;20065;-71
2022/06/20 14:09:56;;;;;;;2.95;2.35;;;;;;;25.00;52.46;98838.13;5146884;28;20069;-71
2022/06/20 14:12:50;;;;;;;9.90;3.65;;;;;;;25.62;50.70;98828.41;5145512;28;20520;-71
2022/06/20 14:15:44;;;;;;;7.40;3.00;;;;;;;25.83;50.26;98827.72;5140840;28;20170;-71